sensor_id;sensor_type;location;lat;lon;timestamp;P1;durP1;ratioP1;P2;durP2;ratioP2
33858;SDS011;20156;47.486;12.074;2022-12-18T00:01:45;27.37;;;16.40;;
33858;SDS011;20156;47.486;12.074;2022-12-18T00:04:43;22.10;;;15.07;;
33858;SDS011;20156;47.486;12.074;2022-12-18T00:07:01;26.67;;;15.97;;
33858;SDS011;20156;47.486;12.074;2022-12-18T00:09:28;30.53;;;17.10;;
33858;SDS011;20156;47.486;12.074;2022-12-18T00:11:53;29.33;;;17.43;;
33858;SDS011;20156;47.486;12.074;2022-12-18T00:14:18;28.50;;;17.00;;
33858;SDS011;20156;47.486;12.074;2022-12-18T00:16:44;32.70;;;19.03;;
33858;SDS011;20156;47.486;12.074;2022-12-18T00:19:12;34.47;;;19.67;;
33858;SDS011;20156;47.486;12.074;2022-12-18T00:21:38;28.63;;;16.43;;
33858;SDS011;20156;47.486;12.074;2022-12-18T00:24:05;27.47;;;16.13;;
33858;SDS011;20156;47.486;12.074;2022-12-18T00:26:32;24.20;;;15.30;;
33858;SDS011;20156;47.486;12.074;2022-12-18T00:28:59;31.53;;;18.50;;
33858;SDS011;20156;47.486;12.074;2022-12-18T00:31:26;27.40;;;16.60;;
33858;SDS011;20156;47.486;12.074;2022-12-18T00:33:55;28.33;;;16.30;;
33858;SDS011;20156;47.486;12.074;2022-12-18T00:36:22;24.73;;;15.07;;
33858;SDS011;20156;47.486;12.074;2022-12-18T00:38:50;26.27;;;15.43;;
33858;SDS011;20156;47.486;12.074;2022-12-18T00:41:16;22.87;;;15.10;;
33858;SDS011;20156;47.486;12.074;2022-12-18T00:44:03;17.73;;;12.37;;
33858;SDS011;20156;47.486;12.074;2022-12-18T00:46:29;18.87;;;12.57;;
33858;SDS011;20156;47.486;12.074;2022-12-18T00:48:55;30.23;;;16.40;;
33858;SDS011;20156;47.486;12.074;2022-12-18T00:51:21;24.77;;;14.53;;
33858;SDS011;20156;47.486;12.074;2022-12-18T00:53:46;18.83;;;13.20;;
33858;SDS011;20156;47.486;12.074;2022-12-18T00:56:11;18.37;;;12.27;;
33858;SDS011;20156;47.486;12.074;2022-12-18T00:58:37;20.27;;;13.20;;
33858;SDS011;20156;47.486;12.074;2022-12-18T01:01:06;24.77;;;14.27;;
33858;SDS011;20156;47.486;12.074;2022-12-18T01:03:31;21.47;;;14.27;;
33858;SDS011;20156;47.486;12.074;2022-12-18T01:05:57;24.00;;;14.57;;
33858;SDS011;20156;47.486;12.074;2022-12-18T01:08:22;23.77;;;14.87;;
33858;SDS011;20156;47.486;12.074;2022-12-18T01:10:48;24.23;;;14.40;;
33858;SDS011;20156;47.486;12.074;2022-12-18T01:13:14;27.77;;;15.90;;
33858;SDS011;20156;47.486;12.074;2022-12-18T01:15:39;27.07;;;15.93;;
33858;SDS011;20156;47.486;12.074;2022-12-18T01:18:05;29.17;;;16.13;;
33858;SDS011;20156;47.486;12.074;2022-12-18T01:20:31;24.97;;;15.77;;
33858;SDS011;20156;47.486;12.074;2022-12-18T01:22:56;22.83;;;14.43;;
33858;SDS011;20156;47.486;12.074;2022-12-18T01:25:22;23.57;;;15.00;;
33858;SDS011;20156;47.486;12.074;2022-12-18T01:27:47;21.63;;;13.33;;
33858;SDS011;20156;47.486;12.074;2022-12-18T01:30:13;25.97;;;14.57;;
33858;SDS011;20156;47.486;12.074;2022-12-18T01:32:38;26.47;;;15.30;;
33858;SDS011;20156;47.486;12.074;2022-12-18T01:35:04;25.07;;;14.20;;
33858;SDS011;20156;47.486;12.074;2022-12-18T01:37:30;22.07;;;13.90;;
33858;SDS011;20156;47.486;12.074;2022-12-18T01:39:55;26.63;;;14.60;;
33858;SDS011;20156;47.486;12.074;2022-12-18T01:42:21;20.30;;;13.70;;
33858;SDS011;20156;47.486;12.074;2022-12-18T01:47:44;21.83;;;14.33;;
33858;SDS011;20156;47.486;12.074;2022-12-18T01:50:23;21.80;;;12.73;;
33858;SDS011;20156;47.486;12.074;2022-12-18T01:52:53;19.80;;;12.63;;
33858;SDS011;20156;47.486;12.074;2022-12-18T01:55:22;21.07;;;12.60;;
33858;SDS011;20156;47.486;12.074;2022-12-18T01:57:52;24.93;;;13.13;;
33858;SDS011;20156;47.486;12.074;2022-12-18T02:00:20;20.47;;;13.10;;
33858;SDS011;20156;47.486;12.074;2022-12-18T02:02:47;19.30;;;12.10;;
33858;SDS011;20156;47.486;12.074;2022-12-18T02:05:16;20.67;;;13.60;;
33858;SDS011;20156;47.486;12.074;2022-12-18T02:16:19;22.43;;;13.17;;
33858;SDS011;20156;47.486;12.074;2022-12-18T02:18:51;24.17;;;13.93;;
33858;SDS011;20156;47.486;12.074;2022-12-18T02:21:28;22.20;;;13.03;;
33858;SDS011;20156;47.486;12.074;2022-12-18T02:26:56;22.07;;;11.87;;
33858;SDS011;20156;47.486;12.074;2022-12-18T02:29:26;21.70;;;11.80;;
33858;SDS011;20156;47.486;12.074;2022-12-18T02:31:57;18.23;;;10.83;;
33858;SDS011;20156;47.486;12.074;2022-12-18T02:34:26;20.40;;;11.13;;
33858;SDS011;20156;47.486;12.074;2022-12-18T02:36:55;21.07;;;11.20;;
33858;SDS011;20156;47.486;12.074;2022-12-18T02:39:23;18.90;;;11.93;;
33858;SDS011;20156;47.486;12.074;2022-12-18T02:41:51;21.60;;;12.53;;
33858;SDS011;20156;47.486;12.074;2022-12-18T02:44:17;19.17;;;12.73;;
33858;SDS011;20156;47.486;12.074;2022-12-18T02:46:44;23.37;;;12.50;;
33858;SDS011;20156;47.486;12.074;2022-12-18T02:49:17;20.90;;;12.07;;
33858;SDS011;20156;47.486;12.074;2022-12-18T02:57:32;18.10;;;10.27;;
33858;SDS011;20156;47.486;12.074;2022-12-18T03:00:06;17.93;;;11.13;;
33858;SDS011;20156;47.486;12.074;2022-12-18T03:05:17;20.23;;;11.63;;
33858;SDS011;20156;47.486;12.074;2022-12-18T03:10:54;19.17;;;11.47;;
33858;SDS011;20156;47.486;12.074;2022-12-18T03:14:07;21.47;;;11.50;;
33858;SDS011;20156;47.486;12.074;2022-12-18T03:16:25;18.77;;;10.60;;
33858;SDS011;20156;47.486;12.074;2022-12-18T03:18:56;14.70;;;9.03;;
33858;SDS011;20156;47.486;12.074;2022-12-18T03:21:27;16.93;;;9.77;;
33858;SDS011;20156;47.486;12.074;2022-12-18T03:23:54;18.97;;;10.33;;
33858;SDS011;20156;47.486;12.074;2022-12-18T03:26:21;17.50;;;10.63;;
33858;SDS011;20156;47.486;12.074;2022-12-18T03:28:51;17.47;;;10.63;;
33858;SDS011;20156;47.486;12.074;2022-12-18T03:31:20;18.00;;;10.37;;
33858;SDS011;20156;47.486;12.074;2022-12-18T03:33:52;16.47;;;9.70;;
33858;SDS011;20156;47.486;12.074;2022-12-18T03:36:19;15.87;;;9.87;;
33858;SDS011;20156;47.486;12.074;2022-12-18T03:38:45;17.77;;;10.50;;
33858;SDS011;20156;47.486;12.074;2022-12-18T03:44:14;19.03;;;10.53;;
33858;SDS011;20156;47.486;12.074;2022-12-18T03:55:03;17.00;;;9.93;;
33858;SDS011;20156;47.486;12.074;2022-12-18T03:57:31;16.07;;;10.03;;
33858;SDS011;20156;47.486;12.074;2022-12-18T04:00:02;15.90;;;9.80;;
33858;SDS011;20156;47.486;12.074;2022-12-18T04:02:33;15.90;;;9.00;;
33858;SDS011;20156;47.486;12.074;2022-12-18T04:05:03;19.07;;;10.30;;
33858;SDS011;20156;47.486;12.074;2022-12-18T04:07:32;14.50;;;9.63;;
33858;SDS011;20156;47.486;12.074;2022-12-18T04:09:58;16.30;;;10.17;;
33858;SDS011;20156;47.486;12.074;2022-12-18T04:12:26;18.23;;;10.13;;
33858;SDS011;20156;47.486;12.074;2022-12-18T04:14:54;16.83;;;10.63;;
33858;SDS011;20156;47.486;12.074;2022-12-18T04:17:19;18.30;;;9.77;;
33858;SDS011;20156;47.486;12.074;2022-12-18T04:19:45;18.40;;;10.37;;
33858;SDS011;20156;47.486;12.074;2022-12-18T04:22:11;14.43;;;8.40;;
33858;SDS011;20156;47.486;12.074;2022-12-18T04:24:36;15.57;;;9.27;;
33858;SDS011;20156;47.486;12.074;2022-12-18T04:27:02;16.10;;;8.90;;
33858;SDS011;20156;47.486;12.074;2022-12-18T04:29:28;17.67;;;10.70;;
33858;SDS011;20156;47.486;12.074;2022-12-18T04:31:53;15.47;;;9.93;;
33858;SDS011;20156;47.486;12.074;2022-12-18T04:34:19;16.90;;;9.53;;
33858;SDS011;20156;47.486;12.074;2022-12-18T04:36:45;17.07;;;10.10;;
33858;SDS011;20156;47.486;12.074;2022-12-18T04:39:10;18.43;;;10.73;;
33858;SDS011;20156;47.486;12.074;2022-12-18T04:41:36;16.97;;;10.67;;
33858;SDS011;20156;47.486;12.074;2022-12-18T04:44:01;18.13;;;10.57;;
33858;SDS011;20156;47.486;12.074;2022-12-18T04:46:27;19.53;;;11.03;;
33858;SDS011;20156;47.486;12.074;2022-12-18T04:48:52;17.33;;;10.77;;
33858;SDS011;20156;47.486;12.074;2022-12-18T04:51:18;18.20;;;10.70;;
33858;SDS011;20156;47.486;12.074;2022-12-18T04:53:43;18.53;;;10.17;;
33858;SDS011;20156;47.486;12.074;2022-12-18T04:56:09;17.57;;;11.03;;
33858;SDS011;20156;47.486;12.074;2022-12-18T04:58:37;16.33;;;9.83;;
33858;SDS011;20156;47.486;12.074;2022-12-18T05:01:04;18.27;;;11.40;;
33858;SDS011;20156;47.486;12.074;2022-12-18T05:03:30;22.00;;;14.40;;
33858;SDS011;20156;47.486;12.074;2022-12-18T05:05:55;20.33;;;11.57;;
33858;SDS011;20156;47.486;12.074;2022-12-18T05:08:20;17.80;;;9.80;;
33858;SDS011;20156;47.486;12.074;2022-12-18T05:10:46;19.73;;;12.03;;
33858;SDS011;20156;47.486;12.074;2022-12-18T05:13:11;18.67;;;10.90;;
33858;SDS011;20156;47.486;12.074;2022-12-18T05:15:37;20.27;;;13.63;;
33858;SDS011;20156;47.486;12.074;2022-12-18T05:18:02;17.13;;;10.43;;
33858;SDS011;20156;47.486;12.074;2022-12-18T05:20:29;17.20;;;9.53;;
33858;SDS011;20156;47.486;12.074;2022-12-18T05:22:54;17.57;;;11.10;;
33858;SDS011;20156;47.486;12.074;2022-12-18T05:25:20;17.40;;;9.33;;
33858;SDS011;20156;47.486;12.074;2022-12-18T05:27:46;16.80;;;10.60;;
33858;SDS011;20156;47.486;12.074;2022-12-18T05:30:13;18.43;;;10.77;;
33858;SDS011;20156;47.486;12.074;2022-12-18T05:32:39;18.20;;;10.13;;
33858;SDS011;20156;47.486;12.074;2022-12-18T05:35:05;18.90;;;10.93;;
33858;SDS011;20156;47.486;12.074;2022-12-18T05:37:32;22.30;;;12.27;;
33858;SDS011;20156;47.486;12.074;2022-12-18T05:39:57;18.77;;;10.13;;
33858;SDS011;20156;47.486;12.074;2022-12-18T05:42:22;22.17;;;12.70;;
33858;SDS011;20156;47.486;12.074;2022-12-18T05:44:48;21.47;;;11.63;;
33858;SDS011;20156;47.486;12.074;2022-12-18T05:47:13;22.20;;;12.13;;
33858;SDS011;20156;47.486;12.074;2022-12-18T05:49:39;26.13;;;13.57;;
33858;SDS011;20156;47.486;12.074;2022-12-18T05:52:04;21.73;;;12.90;;
33858;SDS011;20156;47.486;12.074;2022-12-18T05:54:30;31.23;;;16.30;;
33858;SDS011;20156;47.486;12.074;2022-12-18T05:56:56;26.10;;;15.20;;
33858;SDS011;20156;47.486;12.074;2022-12-18T05:59:22;28.73;;;15.70;;
33858;SDS011;20156;47.486;12.074;2022-12-18T06:01:47;28.33;;;14.97;;
33858;SDS011;20156;47.486;12.074;2022-12-18T06:04:13;32.47;;;16.27;;
33858;SDS011;20156;47.486;12.074;2022-12-18T06:06:38;24.97;;;13.77;;
33858;SDS011;20156;47.486;12.074;2022-12-18T06:09:04;28.27;;;15.07;;
33858;SDS011;20156;47.486;12.074;2022-12-18T06:11:33;20.87;;;12.70;;
33858;SDS011;20156;47.486;12.074;2022-12-18T06:14:00;21.77;;;11.93;;
33858;SDS011;20156;47.486;12.074;2022-12-18T06:16:27;22.57;;;12.07;;
33858;SDS011;20156;47.486;12.074;2022-12-18T06:18:55;26.10;;;13.77;;
33858;SDS011;20156;47.486;12.074;2022-12-18T06:21:24;27.23;;;13.30;;
33858;SDS011;20156;47.486;12.074;2022-12-18T06:23:49;21.07;;;12.27;;
33858;SDS011;20156;47.486;12.074;2022-12-18T06:26:15;29.40;;;15.10;;
33858;SDS011;20156;47.486;12.074;2022-12-18T06:28:40;21.47;;;12.13;;
33858;SDS011;20156;47.486;12.074;2022-12-18T06:31:06;38.50;;;17.37;;
33858;SDS011;20156;47.486;12.074;2022-12-18T06:33:32;34.30;;;14.60;;
33858;SDS011;20156;47.486;12.074;2022-12-18T06:36:02;25.80;;;13.53;;
33858;SDS011;20156;47.486;12.074;2022-12-18T06:38:31;20.60;;;12.30;;
33858;SDS011;20156;47.486;12.074;2022-12-18T06:40:56;22.20;;;12.77;;
33858;SDS011;20156;47.486;12.074;2022-12-18T06:43:22;20.27;;;11.93;;
33858;SDS011;20156;47.486;12.074;2022-12-18T06:45:47;19.30;;;11.00;;
33858;SDS011;20156;47.486;12.074;2022-12-18T06:48:17;25.00;;;13.40;;
33858;SDS011;20156;47.486;12.074;2022-12-18T06:50:44;25.20;;;13.77;;
33858;SDS011;20156;47.486;12.074;2022-12-18T06:53:09;22.10;;;14.30;;
33858;SDS011;20156;47.486;12.074;2022-12-18T06:55:35;21.87;;;13.33;;
33858;SDS011;20156;47.486;12.074;2022-12-18T06:58:00;18.13;;;12.63;;
33858;SDS011;20156;47.486;12.074;2022-12-18T07:00:26;23.87;;;12.80;;
33858;SDS011;20156;47.486;12.074;2022-12-18T07:02:51;18.63;;;12.27;;
33858;SDS011;20156;47.486;12.074;2022-12-18T07:05:16;20.03;;;13.07;;
33858;SDS011;20156;47.486;12.074;2022-12-18T07:07:42;23.47;;;12.80;;
33858;SDS011;20156;47.486;12.074;2022-12-18T07:10:07;18.97;;;11.93;;
33858;SDS011;20156;47.486;12.074;2022-12-18T07:12:33;18.00;;;11.13;;
33858;SDS011;20156;47.486;12.074;2022-12-18T07:14:58;22.90;;;11.80;;
33858;SDS011;20156;47.486;12.074;2022-12-18T07:17:24;18.63;;;11.27;;
33858;SDS011;20156;47.486;12.074;2022-12-18T07:19:49;21.50;;;11.83;;
33858;SDS011;20156;47.486;12.074;2022-12-18T07:22:14;21.33;;;13.23;;
33858;SDS011;20156;47.486;12.074;2022-12-18T07:24:40;19.13;;;12.43;;
33858;SDS011;20156;47.486;12.074;2022-12-18T07:27:05;17.40;;;11.37;;
33858;SDS011;20156;47.486;12.074;2022-12-18T07:29:31;18.77;;;12.60;;
33858;SDS011;20156;47.486;12.074;2022-12-18T07:31:56;19.43;;;13.40;;
33858;SDS011;20156;47.486;12.074;2022-12-18T07:34:21;22.47;;;12.10;;
33858;SDS011;20156;47.486;12.074;2022-12-18T07:36:47;22.60;;;12.90;;
33858;SDS011;20156;47.486;12.074;2022-12-18T07:39:12;24.03;;;13.10;;
33858;SDS011;20156;47.486;12.074;2022-12-18T07:41:38;74.67;;;35.20;;
33858;SDS011;20156;47.486;12.074;2022-12-18T07:44:08;22.03;;;14.47;;
33858;SDS011;20156;47.486;12.074;2022-12-18T07:46:35;26.67;;;13.93;;
33858;SDS011;20156;47.486;12.074;2022-12-18T07:49:00;23.93;;;14.17;;
33858;SDS011;20156;47.486;12.074;2022-12-18T07:51:26;29.20;;;22.17;;
33858;SDS011;20156;47.486;12.074;2022-12-18T07:53:51;27.67;;;17.60;;
33858;SDS011;20156;47.486;12.074;2022-12-18T07:56:16;24.97;;;16.30;;
33858;SDS011;20156;47.486;12.074;2022-12-18T07:58:42;25.43;;;14.43;;
33858;SDS011;20156;47.486;12.074;2022-12-18T08:01:10;26.40;;;19.43;;
33858;SDS011;20156;47.486;12.074;2022-12-18T08:03:37;30.53;;;21.53;;
33858;SDS011;20156;47.486;12.074;2022-12-18T08:06:04;27.70;;;18.50;;
33858;SDS011;20156;47.486;12.074;2022-12-18T08:08:32;24.23;;;16.53;;
33858;SDS011;20156;47.486;12.074;2022-12-18T08:10:58;28.83;;;18.10;;
33858;SDS011;20156;47.486;12.074;2022-12-18T08:13:24;28.33;;;18.37;;
33858;SDS011;20156;47.486;12.074;2022-12-18T08:15:57;31.53;;;20.10;;
33858;SDS011;20156;47.486;12.074;2022-12-18T08:18:28;28.97;;;18.27;;
33858;SDS011;20156;47.486;12.074;2022-12-18T08:20:53;29.13;;;17.30;;
33858;SDS011;20156;47.486;12.074;2022-12-18T08:23:20;65.87;;;36.20;;
33858;SDS011;20156;47.486;12.074;2022-12-18T08:25:45;36.80;;;21.20;;
33858;SDS011;20156;47.486;12.074;2022-12-18T08:28:11;36.97;;;23.90;;
33858;SDS011;20156;47.486;12.074;2022-12-18T08:30:36;39.83;;;28.27;;
33858;SDS011;20156;47.486;12.074;2022-12-18T08:33:02;47.50;;;28.53;;
33858;SDS011;20156;47.486;12.074;2022-12-18T08:35:28;35.93;;;22.27;;
33858;SDS011;20156;47.486;12.074;2022-12-18T08:37:53;61.63;;;31.27;;
33858;SDS011;20156;47.486;12.074;2022-12-18T08:40:19;59.43;;;31.43;;
33858;SDS011;20156;47.486;12.074;2022-12-18T08:42:44;47.57;;;28.40;;
33858;SDS011;20156;47.486;12.074;2022-12-18T08:45:28;58.90;;;33.17;;
33858;SDS011;20156;47.486;12.074;2022-12-18T08:47:54;50.17;;;27.50;;
33858;SDS011;20156;47.486;12.074;2022-12-18T08:50:19;38.17;;;23.97;;
33858;SDS011;20156;47.486;12.074;2022-12-18T08:52:45;33.33;;;21.33;;
33858;SDS011;20156;47.486;12.074;2022-12-18T08:55:10;38.93;;;24.90;;
33858;SDS011;20156;47.486;12.074;2022-12-18T08:57:36;34.57;;;23.07;;
33858;SDS011;20156;47.486;12.074;2022-12-18T09:00:01;42.30;;;24.60;;
33858;SDS011;20156;47.486;12.074;2022-12-18T09:02:27;52.80;;;35.83;;
33858;SDS011;20156;47.486;12.074;2022-12-18T09:04:53;42.60;;;27.73;;
33858;SDS011;20156;47.486;12.074;2022-12-18T09:07:18;44.80;;;31.07;;
33858;SDS011;20156;47.486;12.074;2022-12-18T09:09:43;47.13;;;27.30;;
33858;SDS011;20156;47.486;12.074;2022-12-18T09:12:09;32.80;;;21.07;;
33858;SDS011;20156;47.486;12.074;2022-12-18T09:14:35;51.47;;;33.80;;
33858;SDS011;20156;47.486;12.074;2022-12-18T09:17:00;44.13;;;30.93;;
33858;SDS011;20156;47.486;12.074;2022-12-18T09:19:26;55.77;;;35.70;;
33858;SDS011;20156;47.486;12.074;2022-12-18T09:21:51;68.77;;;51.20;;
33858;SDS011;20156;47.486;12.074;2022-12-18T09:24:17;39.00;;;22.87;;
33858;SDS011;20156;47.486;12.074;2022-12-18T09:26:42;29.47;;;19.17;;
33858;SDS011;20156;47.486;12.074;2022-12-18T09:29:08;35.10;;;20.30;;
33858;SDS011;20156;47.486;12.074;2022-12-18T09:31:34;34.27;;;21.87;;
33858;SDS011;20156;47.486;12.074;2022-12-18T09:34:00;44.27;;;26.03;;
33858;SDS011;20156;47.486;12.074;2022-12-18T09:36:25;32.23;;;19.37;;
33858;SDS011;20156;47.486;12.074;2022-12-18T09:38:51;36.83;;;22.50;;
33858;SDS011;20156;47.486;12.074;2022-12-18T09:43:57;35.47;;;23.40;;
33858;SDS011;20156;47.486;12.074;2022-12-18T09:46:27;37.10;;;25.10;;
33858;SDS011;20156;47.486;12.074;2022-12-18T09:49:00;52.10;;;29.83;;
33858;SDS011;20156;47.486;12.074;2022-12-18T09:51:32;49.23;;;28.87;;
33858;SDS011;20156;47.486;12.074;2022-12-18T09:54:07;38.03;;;25.23;;
33858;SDS011;20156;47.486;12.074;2022-12-18T09:56:38;44.27;;;25.27;;
33858;SDS011;20156;47.486;12.074;2022-12-18T09:59:09;35.77;;;23.53;;
33858;SDS011;20156;47.486;12.074;2022-12-18T10:01:46;40.20;;;25.30;;
33858;SDS011;20156;47.486;12.074;2022-12-18T10:04:11;47.40;;;28.50;;
33858;SDS011;20156;47.486;12.074;2022-12-18T10:12:07;42.40;;;27.50;;
33858;SDS011;20156;47.486;12.074;2022-12-18T10:20:39;54.80;;;33.00;;
33858;SDS011;20156;47.486;12.074;2022-12-18T10:23:22;52.37;;;29.23;;
33858;SDS011;20156;47.486;12.074;2022-12-18T10:26:00;40.67;;;26.03;;
33858;SDS011;20156;47.486;12.074;2022-12-18T10:28:29;40.90;;;25.10;;
33858;SDS011;20156;47.486;12.074;2022-12-18T10:30:56;40.43;;;25.00;;
33858;SDS011;20156;47.486;12.074;2022-12-18T10:33:24;34.07;;;23.47;;
33858;SDS011;20156;47.486;12.074;2022-12-18T10:35:53;40.23;;;24.53;;
33858;SDS011;20156;47.486;12.074;2022-12-18T10:38:26;37.10;;;23.47;;
33858;SDS011;20156;47.486;12.074;2022-12-18T10:48:27;32.90;;;19.17;;
33858;SDS011;20156;47.486;12.074;2022-12-18T10:50:54;35.03;;;18.67;;
33858;SDS011;20156;47.486;12.074;2022-12-18T10:53:27;18.30;;;11.60;;
33858;SDS011;20156;47.486;12.074;2022-12-18T10:55:56;24.97;;;14.33;;
33858;SDS011;20156;47.486;12.074;2022-12-18T11:01:07;28.90;;;17.20;;
33858;SDS011;20156;47.486;12.074;2022-12-18T11:03:44;24.83;;;14.13;;
33858;SDS011;20156;47.486;12.074;2022-12-18T11:06:20;24.63;;;12.70;;
33858;SDS011;20156;47.486;12.074;2022-12-18T11:09:23;14.87;;;10.20;;
33858;SDS011;20156;47.486;12.074;2022-12-18T11:11:48;21.33;;;11.93;;
33858;SDS011;20156;47.486;12.074;2022-12-18T11:15:02;25.63;;;12.73;;
33858;SDS011;20156;47.486;12.074;2022-12-18T11:17:18;20.37;;;11.57;;
33858;SDS011;20156;47.486;12.074;2022-12-18T11:19:58;25.87;;;12.27;;
33858;SDS011;20156;47.486;12.074;2022-12-18T11:24:54;23.50;;;12.50;;
33858;SDS011;20156;47.486;12.074;2022-12-18T11:27:22;25.03;;;12.00;;
33858;SDS011;20156;47.486;12.074;2022-12-18T11:29:49;16.67;;;9.03;;
33858;SDS011;20156;47.486;12.074;2022-12-18T11:37:46;11.83;;;7.40;;
33858;SDS011;20156;47.486;12.074;2022-12-18T11:40:21;16.97;;;8.87;;
33858;SDS011;20156;47.486;12.074;2022-12-18T11:45:54;16.03;;;9.40;;
33858;SDS011;20156;47.486;12.074;2022-12-18T11:48:36;14.10;;;8.27;;
33858;SDS011;20156;47.486;12.074;2022-12-18T11:51:09;13.03;;;8.00;;
33858;SDS011;20156;47.486;12.074;2022-12-18T11:53:40;11.93;;;7.00;;
33858;SDS011;20156;47.486;12.074;2022-12-18T11:56:11;10.87;;;6.73;;
33858;SDS011;20156;47.486;12.074;2022-12-18T11:58:48;10.63;;;7.57;;
33858;SDS011;20156;47.486;12.074;2022-12-18T12:01:46;10.03;;;5.80;;
33858;SDS011;20156;47.486;12.074;2022-12-18T12:13:03;7.90;;;5.90;;
33858;SDS011;20156;47.486;12.074;2022-12-18T12:26:10;6.03;;;4.70;;
33858;SDS011;20156;47.486;12.074;2022-12-18T12:34:34;5.50;;;4.80;;
33858;SDS011;20156;47.486;12.074;2022-12-18T12:39:56;11.07;;;6.90;;
33858;SDS011;20156;47.486;12.074;2022-12-18T12:42:38;10.63;;;7.57;;
33858;SDS011;20156;47.486;12.074;2022-12-18T12:45:28;6.10;;;4.60;;
33858;SDS011;20156;47.486;12.074;2022-12-18T12:48:00;5.63;;;4.50;;
33858;SDS011;20156;47.486;12.074;2022-12-18T12:50:30;7.80;;;5.23;;
33858;SDS011;20156;47.486;12.074;2022-12-18T12:52:59;6.03;;;4.17;;
33858;SDS011;20156;47.486;12.074;2022-12-18T12:55:29;3.57;;;2.90;;
33858;SDS011;20156;47.486;12.074;2022-12-18T13:00:40;5.93;;;4.53;;
33858;SDS011;20156;47.486;12.074;2022-12-18T13:05:59;4.90;;;3.70;;
33858;SDS011;20156;47.486;12.074;2022-12-18T13:08:30;7.83;;;4.90;;
33858;SDS011;20156;47.486;12.074;2022-12-18T13:10:59;4.53;;;3.77;;
33858;SDS011;20156;47.486;12.074;2022-12-18T13:13:50;8.23;;;5.50;;
33858;SDS011;20156;47.486;12.074;2022-12-18T13:16:22;8.10;;;5.70;;
33858;SDS011;20156;47.486;12.074;2022-12-18T13:18:50;7.43;;;5.07;;
33858;SDS011;20156;47.486;12.074;2022-12-18T13:21:24;7.53;;;5.03;;
33858;SDS011;20156;47.486;12.074;2022-12-18T13:23:53;4.27;;;3.80;;
33858;SDS011;20156;47.486;12.074;2022-12-18T13:28:50;6.80;;;5.13;;
33858;SDS011;20156;47.486;12.074;2022-12-18T13:36:49;5.20;;;3.60;;
33858;SDS011;20156;47.486;12.074;2022-12-18T13:41:51;7.23;;;4.30;;
33858;SDS011;20156;47.486;12.074;2022-12-18T13:46:50;6.50;;;4.97;;
33858;SDS011;20156;47.486;12.074;2022-12-18T13:51:44;5.93;;;4.60;;
33858;SDS011;20156;47.486;12.074;2022-12-18T13:56:48;6.37;;;3.97;;
33858;SDS011;20156;47.486;12.074;2022-12-18T13:59:19;6.77;;;4.70;;
33858;SDS011;20156;47.486;12.074;2022-12-18T14:04:27;10.97;;;6.60;;
33858;SDS011;20156;47.486;12.074;2022-12-18T14:06:58;8.33;;;5.97;;
33858;SDS011;20156;47.486;12.074;2022-12-18T14:09:30;4.00;;;3.13;;
33858;SDS011;20156;47.486;12.074;2022-12-18T14:11:59;7.73;;;4.77;;
33858;SDS011;20156;47.486;12.074;2022-12-18T14:14:45;5.97;;;4.20;;
33858;SDS011;20156;47.486;12.074;2022-12-18T14:17:12;4.23;;;3.23;;
33858;SDS011;20156;47.486;12.074;2022-12-18T14:19:43;5.53;;;3.50;;
33858;SDS011;20156;47.486;12.074;2022-12-18T14:22:19;8.40;;;5.43;;
33858;SDS011;20156;47.486;12.074;2022-12-18T14:27:44;9.20;;;6.00;;
33858;SDS011;20156;47.486;12.074;2022-12-18T14:30:29;7.60;;;5.13;;
33858;SDS011;20156;47.486;12.074;2022-12-18T14:33:00;7.43;;;4.60;;
33858;SDS011;20156;47.486;12.074;2022-12-18T14:35:31;9.50;;;5.00;;
33858;SDS011;20156;47.486;12.074;2022-12-18T14:40:37;12.03;;;7.17;;
33858;SDS011;20156;47.486;12.074;2022-12-18T14:43:02;12.43;;;7.40;;
33858;SDS011;20156;47.486;12.074;2022-12-18T14:45:35;7.97;;;5.37;;
33858;SDS011;20156;47.486;12.074;2022-12-18T14:48:05;9.97;;;6.13;;
33858;SDS011;20156;47.486;12.074;2022-12-18T14:50:33;5.23;;;4.00;;
33858;SDS011;20156;47.486;12.074;2022-12-18T14:52:59;11.03;;;6.27;;
33858;SDS011;20156;47.486;12.074;2022-12-18T14:55:24;10.03;;;6.60;;
33858;SDS011;20156;47.486;12.074;2022-12-18T14:57:51;7.90;;;5.63;;
33858;SDS011;20156;47.486;12.074;2022-12-18T15:00:19;10.70;;;5.87;;
33858;SDS011;20156;47.486;12.074;2022-12-18T15:02:48;11.80;;;7.00;;
33858;SDS011;20156;47.486;12.074;2022-12-18T15:05:18;9.77;;;6.73;;
33858;SDS011;20156;47.486;12.074;2022-12-18T15:07:48;12.23;;;7.20;;
33858;SDS011;20156;47.486;12.074;2022-12-18T15:23:22;52.13;;;33.57;;
33858;SDS011;20156;47.486;12.074;2022-12-18T15:26:00;41.10;;;26.10;;
33858;SDS011;20156;47.486;12.074;2022-12-18T15:28:35;31.07;;;19.20;;
33858;SDS011;20156;47.486;12.074;2022-12-18T15:33:40;40.13;;;25.27;;
33858;SDS011;20156;47.486;12.074;2022-12-18T15:36:25;44.20;;;26.33;;
33858;SDS011;20156;47.486;12.074;2022-12-18T15:38:51;43.10;;;27.53;;
33858;SDS011;20156;47.486;12.074;2022-12-18T15:41:19;34.90;;;21.43;;
33858;SDS011;20156;47.486;12.074;2022-12-18T15:43:47;22.20;;;13.77;;
33858;SDS011;20156;47.486;12.074;2022-12-18T15:46:33;20.03;;;13.87;;
33858;SDS011;20156;47.486;12.074;2022-12-18T15:48:58;21.70;;;14.60;;
33858;SDS011;20156;47.486;12.074;2022-12-18T15:51:26;23.00;;;15.80;;
33858;SDS011;20156;47.486;12.074;2022-12-18T15:53:56;25.37;;;18.27;;
33858;SDS011;20156;47.486;12.074;2022-12-18T15:56:25;34.83;;;22.80;;
33858;SDS011;20156;47.486;12.074;2022-12-18T15:59:10;46.73;;;30.40;;
33858;SDS011;20156;47.486;12.074;2022-12-18T16:01:37;26.43;;;17.63;;
33858;SDS011;20156;47.486;12.074;2022-12-18T16:04:05;23.77;;;16.60;;
33858;SDS011;20156;47.486;12.074;2022-12-18T16:06:31;25.33;;;17.30;;
33858;SDS011;20156;47.486;12.074;2022-12-18T16:08:57;39.50;;;22.83;;
33858;SDS011;20156;47.486;12.074;2022-12-18T16:11:27;42.27;;;25.53;;
33858;SDS011;20156;47.486;12.074;2022-12-18T16:14:04;45.13;;;27.70;;
33858;SDS011;20156;47.486;12.074;2022-12-18T16:16:36;35.00;;;20.97;;
33858;SDS011;20156;47.486;12.074;2022-12-18T16:19:02;43.67;;;28.50;;
33858;SDS011;20156;47.486;12.074;2022-12-18T16:21:28;40.03;;;26.43;;
33858;SDS011;20156;47.486;12.074;2022-12-18T16:23:54;43.70;;;28.63;;
33858;SDS011;20156;47.486;12.074;2022-12-18T16:26:19;47.23;;;29.80;;
33858;SDS011;20156;47.486;12.074;2022-12-18T16:28:45;26.90;;;16.77;;
33858;SDS011;20156;47.486;12.074;2022-12-18T16:31:11;28.83;;;18.03;;
33858;SDS011;20156;47.486;12.074;2022-12-18T16:33:38;20.87;;;13.93;;
33858;SDS011;20156;47.486;12.074;2022-12-18T16:36:06;21.80;;;13.67;;
33858;SDS011;20156;47.486;12.074;2022-12-18T16:38:33;24.07;;;15.03;;
33858;SDS011;20156;47.486;12.074;2022-12-18T16:40:58;16.47;;;11.97;;
33858;SDS011;20156;47.486;12.074;2022-12-18T16:43:43;16.30;;;10.80;;
33858;SDS011;20156;47.486;12.074;2022-12-18T16:46:09;17.70;;;11.90;;
33858;SDS011;20156;47.486;12.074;2022-12-18T16:48:34;13.20;;;10.33;;
33858;SDS011;20156;47.486;12.074;2022-12-18T16:51:02;15.67;;;9.80;;